»·PEaware :: WAT175 KSAN-KLAS

WAT175 :: KSAN-KLAS

FLIGHT INFORMATION

Flight Status: Arrived
Operator:
Walker Air Transport
More flights by this operator :: More flights under this callsign
Pilot: Michael C. (27126)
Aircraft: BOEING 737-800
(B738)
More flights by this aircraft type
Origin: KSAN San Diego Intl-Lindbergh
United States
Destination: KLAS McCarran Intl
United States
More flights between these airports :: More routes between these airports
Route: PADRZ2 CHKNN SEBBY YELAH MISEN KEPEC6
File this flight plan on PilotEdge
Remarks: RMK / SIMBRIEF
Altitude:
(Current/Filed)
35,000ft
Speed:
(Current/Filed)
454kts
Departed: 11-Jul-20 09:14 PM
Arrived: 11-Jul-20 10:02 PM
Distance/Time
Traveled:
225nm/0:48
Distance/Time
To Go:
Arrived

Flight Plot

Page will automatically refresh every two minutes.

Flight plan parsing failed; only flown route is shown


Map Options




Map Legend


Flown Route
Filed Route
Departure Airport
Arrival Airport
Navaid (VOR, NDB)
Fix

Horizontal Profiles

Position Reports

Time Latitude Longitude Heading Altitude Ground
Speed
11-Jul-20 20:35 32.734161 -117.203269 267 25ft 0kts
11-Jul-20 20:36 32.734161 -117.203269 267 25ft 0kts
11-Jul-20 20:37 32.734161 -117.203269 267 25ft 0kts
11-Jul-20 20:38 32.734161 -117.203269 267 25ft 0kts
11-Jul-20 20:39 32.734161 -117.203269 267 25ft 0kts
11-Jul-20 20:40 32.734161 -117.203269 267 25ft 0kts
11-Jul-20 20:41 32.734161 -117.203269 267 25ft 0kts
11-Jul-20 20:42 32.734161 -117.203269 267 25ft 0kts
11-Jul-20 20:43 32.734161 -117.203269 267 25ft 0kts
11-Jul-20 20:44 32.734161 -117.203269 267 25ft 0kts
11-Jul-20 20:45 32.734161 -117.203269 267 25ft 0kts
11-Jul-20 20:46 32.734161 -117.203269 267 25ft 0kts
11-Jul-20 20:47 32.734161 -117.203269 267 25ft 0kts
11-Jul-20 20:48 32.734161 -117.203269 267 25ft 0kts
11-Jul-20 20:49 32.734161 -117.203269 267 25ft 0kts
11-Jul-20 20:50 32.734161 -117.203269 267 25ft 0kts
11-Jul-20 20:51 32.734161 -117.203269 267 25ft 0kts
11-Jul-20 20:52 32.734161 -117.203269 267 25ft 0kts
11-Jul-20 20:53 32.734161 -117.203269 267 25ft 0kts
11-Jul-20 20:54 32.734161 -117.203269 267 25ft 0kts
11-Jul-20 20:55 32.734161 -117.203269 267 25ft 0kts
11-Jul-20 20:56 32.734161 -117.203269 267 25ft 0kts
11-Jul-20 20:57 32.734161 -117.203269 267 25ft 0kts
11-Jul-20 20:58 32.734161 -117.203269 267 25ft 0kts
11-Jul-20 20:59 32.734161 -117.203201 284 25ft 2kts
11-Jul-20 21:00 32.733908 -117.202758 12 25ft 1kts
11-Jul-20 21:01 32.733823 -117.202794 19 25ft 0kts
11-Jul-20 21:02 32.733823 -117.202793 19 25ft 0kts
11-Jul-20 21:03 32.733824 -117.202793 19 25ft 0kts
11-Jul-20 21:04 32.735029 -117.202364 18 25ft 14kts
11-Jul-20 21:05 32.734232 -117.196768 106 25ft 27kts
11-Jul-20 21:06 32.732614 -117.189996 105 25ft 20kts
11-Jul-20 21:07 32.731312 -117.184594 106 25ft 19kts
11-Jul-20 21:08 32.730060 -117.179507 106 25ft 21kts
11-Jul-20 21:09 32.729696 -117.178011 106 25ft 0kts
11-Jul-20 21:10 32.729509 -117.176865 79 25ft 0kts
11-Jul-20 21:11 32.729509 -117.176865 79 25ft 0kts
11-Jul-20 21:12 32.730441 -117.176811 289 25ft 25kts
11-Jul-20 21:13 32.742824 -117.226872 287 2116ft 174kts
11-Jul-20 21:14 32.780860 -117.288859 304 4592ft 249kts
11-Jul-20 21:15 32.827219 -117.361286 305 7721ft 287kts
11-Jul-20 21:16 32.877171 -117.439859 306 10890ft 309kts
11-Jul-20 21:17 32.931611 -117.523938 308 13238ft 349kts
11-Jul-20 21:18 33.025042 -117.545912 20 15152ft 383kts
11-Jul-20 21:19 33.114636 -117.504713 23 16766ft 414kts
11-Jul-20 21:20 33.223295 -117.449898 24 18372ft 442kts
11-Jul-20 21:21 33.336305 -117.392947 23 20334ft 456kts
11-Jul-20 21:22 33.455918 -117.334422 22 22161ft 468kts
11-Jul-20 21:23 33.578740 -117.273110 23 23782ft 480kts
11-Jul-20 21:24 33.703170 -117.208032 23 25189ft 492kts
11-Jul-20 21:25 33.831290 -117.142771 22 26542ft 500kts
11-Jul-20 21:26 33.960704 -117.081446 20 28273ft 497kts
11-Jul-20 21:27 34.089968 -117.022536 20 30010ft 493kts
11-Jul-20 21:28 34.196990 -116.971584 21 31397ft 489kts
11-Jul-20 21:29 34.320011 -116.910590 21 32891ft 485kts
11-Jul-20 21:30 34.445091 -116.848456 21 32981ft 481kts
11-Jul-20 21:31 34.563959 -116.772576 28 32464ft 489kts
11-Jul-20 21:32 34.679052 -116.693915 29 30454ft 465kts
11-Jul-20 21:33 34.790828 -116.617434 29 28444ft 455kts
11-Jul-20 21:34 34.899758 -116.543545 28 26578ft 449kts
11-Jul-20 21:35 35.008557 -116.469086 28 24858ft 440kts
11-Jul-20 21:36 35.103832 -116.390613 39 23771ft 414kts
11-Jul-20 21:37 35.175288 -116.309698 43 23658ft 398kts
11-Jul-20 21:38 35.252767 -116.214912 44 22961ft 412kts
11-Jul-20 21:39 35.332091 -116.115777 45 20914ft 399kts
11-Jul-20 21:40 35.408259 -116.019915 45 18915ft 386kts
11-Jul-20 21:41 35.480491 -115.928465 45 17760ft 359kts
11-Jul-20 21:42 35.553088 -115.836409 45 15714ft 379kts
11-Jul-20 21:43 35.629742 -115.754312 36 14498ft 344kts
11-Jul-20 21:44 35.702696 -115.685518 36 13368ft 324kts
11-Jul-20 21:45 35.773407 -115.618803 36 11917ft 317kts
11-Jul-20 21:46 35.842307 -115.553730 36 11036ft 306kts
11-Jul-20 21:47 35.909547 -115.490143 36 11010ft 286kts
11-Jul-20 21:48 35.973864 -115.429369 36 10991ft 291kts
11-Jul-20 21:49 36.023961 -115.356910 76 10291ft 287kts
11-Jul-20 21:50 36.023102 -115.263018 96 9146ft 282kts
11-Jul-20 21:51 36.016351 -115.170298 95 8650ft 279kts
11-Jul-20 21:52 36.010188 -115.078990 95 8084ft 254kts
11-Jul-20 21:53 36.004984 -114.991362 94 7480ft 262kts
11-Jul-20 21:54 35.999629 -114.901516 94 5819ft 256kts
11-Jul-20 21:55 36.042036 -114.867116 310 4989ft 214kts
11-Jul-20 21:57 36.066394 -114.923296 292 4970ft 175kts
11-Jul-20 21:58 36.073587 -114.979620 268 4483ft 163kts
11-Jul-20 21:59 36.073610 -115.032920 268 3627ft 159kts
11-Jul-20 22:00 36.073645 -115.082219 268 2849ft 157kts
11-Jul-20 22:01 36.073662 -115.126565 268 2166ft 155kts
11-Jul-20 22:02 36.074419 -115.149878 296 2121ft 19kts
11-Jul-20 22:03 36.074704 -115.150471 304 2121ft 10kts
11-Jul-20 22:04 36.078500 -115.153099 17 2121ft 10kts
11-Jul-20 22:05 36.080937 -115.151092 69 2121ft 17kts
11-Jul-20 22:06 36.079534 -115.147753 143 2121ft 9kts
11-Jul-20 22:07 36.079448 -115.146737 28 2121ft 0kts

Navigation Log

Ident Type
Flight plan parsing failed, navigation log unavailable